Latitude: N 50° 09' 49" Longitude: W 05° 11' 53" Elevation: 168m ASL

There are 18 visitors online

Adverts
Latest METAR Data

Below are the latest METARs ("Meteorological Services to Airmen Reports"), for RNAS Culdrose and Newquay Airport.

EGDR - RNAS Culdrose
Distance from station: SW 6mi, 9km
Updated: Sat, 19-Aug-2017 4:50pm BST
Mostly Cloudy
Mostly Cloudy
 Wind from WSW
Wind: WSW 9 mph , 15 km/h
Temperature: 61°F , 16°C
Dew Point: 52°F , 11°C
Humidity: 72%
Barometer: 30.21 inHg , 1023 hPa
Clouds: Mostly Cloudy
Visibility: 6 miles , 10 km
Cloud details: Few Clouds 1400 ft
Partly Cloudy 2600 ft
Mostly Cloudy 4500 ft
2017/08/19 15:50 EGDR 191550Z 25008KT 9999 FEW014 SCT026 BKN045 16/11 Q1023 BLU TEMPO SCT024 WHT
EGHQ - Newquay Airport
Distance from station: NE 21mi, 34km
Updated: Sat, 19-Aug-2017 5:20pm BST
Nearby showers, Partly cloudy
Nearby showers, Partly cloudy
 Wind from W
Wind: W 16 mph , 26 km/h
Temperature: 61°F , 16°C
Dew Point: 50°F , 10°C
Humidity: 68%
Barometer: 30.21 inHg , 1023 hPa
Summary: Nearby Showers
Clouds: Partly Cloudy
Visibility: 6 miles , 10 km
Cloud details: Partly Cloudy 2100 ft
2017/08/19 16:20 EGHQ 191620Z 26014KT 9999 VCSH SCT021 16/10 Q1023
 
EGTE - Exeter Airport
Distance from station: ENE 88mi, 141km
Updated: Sat, 19-Aug-2017 5:20pm BST
Partly Cloudy
Partly Cloudy
 Wind from WNW
Wind: WNW 14 mph , 22 km/h
Temperature: 63°F , 17°C
Dew Point: 48°F , 9°C
Humidity: 59%
Barometer: 30.15 inHg , 1021 hPa
Clouds: Partly Cloudy
Visibility: 6 miles , 10 km
Cloud details: Partly Cloudy 3500 ft
2017/08/19 16:20 EGTE 191620Z 29012KT 9999 SCT035 17/09 Q1021
EGHE - St Marys, IOS
Distance from station: W 51mi, 82km
Updated: Sat, 19-Aug-2017 5:20pm BST
Few Clouds
Few Clouds
 Wind from W
Wind: W 15 mph , 24 km/h
Temperature: 64°F , 18°C
Dew Point: 54°F , 12°C
Humidity: 68%
Barometer: 30.24 inHg , 1024 hPa
Clouds: Few Clouds
Visibility: 6 miles , 10 km
Cloud details: Few Clouds 2100 ft
2017/08/19 16:20 EGHE 191620Z 26013KT 9999 FEW021 18/12 Q1024

Metar display script from Saratoga-Weather.org

UK - WEATHER STATION TOPSITES - UK World Weather Websites

This is a private weather station, never base important decisions or events on data from this weather station. Although every effort has been made to make the data as accurate as possible it does not meet MetOffice standards. It is proved as a guide of local weather conditions. We accept no liability for any loss which may arise from use of the data.

Copyright © Carnkie Weather 2009 - 2017.